Time;durP1;ratioP1;P1;durP2;ratioP2;P2;SDS_P1;SDS_P2;PMS_P1;PMS_P2;Temp;Humidity;BMP_temperature;BMP_pressure;BME280_temperature;BME280_humidity;BME280_pressure;Samples;Min_cycle;Max_cycle;Signal;HPM_P1;HPM_P2
2022/07/13 00:00:16;;;;;;;5.97;3.58;;;24.50;99.90;;;;;;5083245;28;20028;-72
2022/07/13 00:02:41;;;;;;;4.10;3.72;;;24.40;99.90;;;;;;5082330;28;20048;-71
2022/07/13 00:05:08;;;;;;;3.85;3.45;;;24.50;99.90;;;;;;5083606;28;20021;-73
2022/07/13 00:07:34;;;;;;;5.68;3.17;;;24.50;99.90;;;;;;5083004;28;20266;-72
2022/07/13 00:10:00;;;;;;;3.38;3.17;;;24.50;99.90;;;;;;5083644;28;20316;-73
2022/07/13 00:12:26;;;;;;;5.90;2.95;;;24.50;99.90;;;;;;5083870;28;20036;-73
2022/07/13 00:14:52;;;;;;;4.72;3.08;;;24.40;99.90;;;;;;5083319;28;20032;-71
2022/07/13 00:17:18;;;;;;;3.33;2.92;;;24.40;99.90;;;;;;5083777;28;20092;-71
2022/07/13 00:19:43;;;;;;;4.90;2.90;;;24.40;99.90;;;;;;5084021;28;20036;-71
2022/07/13 00:22:09;;;;;;;4.78;3.00;;;24.30;99.90;;;;;;5083403;28;20459;-72
2022/07/13 00:24:35;;;;;;;3.97;3.03;;;24.40;99.90;;;;;;5083602;28;20400;-70
2022/07/13 00:27:01;;;;;;;3.50;3.20;;;24.30;99.90;;;;;;5084584;28;20020;-71
2022/07/13 00:29:26;;;;;;;4.72;2.90;;;24.30;99.90;;;;;;5084227;28;20029;-71
2022/07/13 00:31:52;;;;;;;3.22;3.03;;;24.30;99.90;;;;;;5082918;28;20040;-72
2022/07/13 00:34:18;;;;;;;3.10;2.75;;;24.30;99.90;;;;;;5084608;28;20033;-72
2022/07/13 00:36:44;;;;;;;4.10;3.03;;;24.20;99.90;;;;;;5084036;28;20036;-72
2022/07/13 00:39:10;;;;;;;3.33;2.78;;;24.30;99.90;;;;;;5083731;28;20105;-72
2022/07/13 00:41:35;;;;;;;3.53;2.55;;;24.10;99.90;;;;;;5083048;28;20033;-71
2022/07/13 00:44:09;;;;;;;4.60;2.70;;;24.10;99.90;;;;;;5083303;28;20036;-73
2022/07/13 00:46:36;;;;;;;4.15;2.35;;;24.10;99.90;;;;;;5082877;28;20056;-70
2022/07/13 00:49:03;;;;;;;3.20;2.53;;;24.10;99.90;;;;;;5083144;28;20035;-71
2022/07/13 00:51:30;;;;;;;2.47;2.20;;;24.20;99.90;;;;;;5083368;28;20036;-72
2022/07/13 00:53:56;;;;;;;4.90;2.88;;;24.30;99.90;;;;;;5083046;28;20089;-72
2022/07/13 00:56:24;;;;;;;2.63;2.40;;;24.30;99.90;;;;;;5082481;28;20052;-74
2022/07/13 00:58:50;;;;;;;2.63;2.42;;;24.30;99.90;;;;;;5082285;28;20074;-70
2022/07/13 01:01:16;;;;;;;2.85;2.65;;;24.20;99.90;;;;;;5082130;28;20094;-72
2022/07/13 01:03:42;;;;;;;2.85;2.47;;;24.30;99.90;;;;;;5082251;28;20033;-71
2022/07/13 01:06:08;;;;;;;4.55;2.47;;;24.20;99.90;;;;;;5082894;28;20427;-74
2022/07/13 01:08:34;;;;;;;2.85;2.65;;;24.10;99.90;;;;;;5082174;28;20024;-73
2022/07/13 01:11:01;;;;;;;2.63;2.42;;;24.10;99.90;;;;;;5081379;28;20032;-72
2022/07/13 01:13:27;;;;;;;2.42;2.22;;;24.00;99.90;;;;;;5082702;28;20037;-74
2022/07/13 01:15:54;;;;;;;3.30;2.22;;;24.10;99.90;;;;;;5065297;28;20028;-72
2022/07/13 01:18:20;;;;;;;3.35;2.70;;;24.00;99.90;;;;;;5083523;28;20032;-72
2022/07/13 01:20:46;;;;;;;3.00;2.70;;;24.00;99.90;;;;;;5083997;28;20113;-72
2022/07/13 01:23:14;;;;;;;3.05;2.63;;;24.00;99.90;;;;;;5083891;28;20063;-74
2022/07/13 01:25:41;;;;;;;3.38;2.40;;;24.00;99.90;;;;;;5082172;28;20060;-73
2022/07/13 01:28:07;;;;;;;4.20;2.30;;;24.00;99.90;;;;;;5082115;28;20044;-71
2022/07/13 01:30:33;;;;;;;3.33;2.67;;;24.10;99.90;;;;;;5081848;28;20036;-73
2022/07/13 01:32:59;;;;;;;5.38;2.80;;;24.00;99.90;;;;;;5082611;28;20056;-72
2022/07/13 01:35:25;;;;;;;3.58;2.30;;;23.80;99.90;;;;;;5081499;28;20043;-72
2022/07/13 01:37:53;;;;;;;3.10;2.80;;;23.70;99.90;;;;;;5082904;28;20029;-73
2022/07/13 01:40:19;;;;;;;4.10;2.05;;;23.60;99.90;;;;;;5082756;28;20036;-72
2022/07/13 01:42:50;;;;;;;4.47;2.63;;;23.60;99.90;;;;;;5081603;28;20032;-73
2022/07/13 01:45:19;;;;;;;5.18;2.92;;;23.60;99.90;;;;;;5082002;28;20028;-71
2022/07/13 01:47:47;;;;;;;3.78;2.55;;;23.60;99.90;;;;;;5082432;28;20032;-72
2022/07/13 01:50:16;;;;;;;2.67;2.40;;;23.60;99.90;;;;;;5081805;28;20043;-72
2022/07/13 01:52:42;;;;;;;3.90;2.50;;;23.60;99.90;;;;;;5082868;28;20127;-70
2022/07/13 01:55:10;;;;;;;4.32;2.42;;;23.70;99.90;;;;;;5082753;28;20100;-73
2022/07/13 01:57:36;;;;;;;3.97;2.53;;;23.70;99.90;;;;;;5082684;28;20086;-71
2022/07/13 02:00:07;;;;;;;3.17;2.20;;;23.70;99.90;;;;;;5082088;28;20029;-71
2022/07/13 02:02:38;;;;;;;3.47;2.15;;;23.70;99.90;;;;;;5082767;28;20071;-72
2022/07/13 02:05:05;;;;;;;4.80;2.45;;;23.60;99.90;;;;;;5065205;28;20379;-72
2022/07/13 02:07:31;;;;;;;3.80;2.28;;;23.60;99.90;;;;;;5081982;28;20131;-72
2022/07/13 02:09:57;;;;;;;3.08;2.33;;;23.60;99.90;;;;;;5081015;28;20064;-73
2022/07/13 02:12:23;;;;;;;3.28;2.17;;;23.70;99.90;;;;;;5082680;28;20424;-72
2022/07/13 02:14:49;;;;;;;2.88;2.58;;;23.70;99.90;;;;;;5082545;28;20028;-72
2022/07/13 02:17:14;;;;;;;4.65;2.30;;;23.70;99.90;;;;;;5081595;28;20044;-72
2022/07/13 02:19:45;;;;;;;3.65;2.35;;;23.70;99.90;;;;;;5082163;28;20111;-70
2022/07/13 02:22:11;;;;;;;4.10;2.85;;;23.60;99.90;;;;;;5065254;28;20048;-72
2022/07/13 02:24:37;;;;;;;2.22;2.03;;;23.70;99.90;;;;;;5081018;28;20055;-69
2022/07/13 02:27:03;;;;;;;3.85;2.00;;;23.80;99.90;;;;;;5082042;28;20020;-75
2022/07/13 02:29:29;;;;;;;2.80;2.55;;;23.80;99.90;;;;;;5081800;28;20020;-71
2022/07/13 02:31:55;;;;;;;2.95;2.30;;;23.70;99.90;;;;;;5081320;28;20058;-73
2022/07/13 02:34:24;;;;;;;4.93;2.40;;;23.70;99.90;;;;;;5080422;28;20028;-70
2022/07/13 02:36:49;;;;;;;4.85;2.15;;;23.70;99.90;;;;;;5080015;28;20032;-71
2022/07/13 02:39:15;;;;;;;3.17;2.22;;;23.70;99.90;;;;;;5081419;28;20051;-70
2022/07/13 02:41:41;;;;;;;3.38;2.40;;;23.70;99.90;;;;;;5081345;28;20029;-73
2022/07/13 02:44:07;;;;;;;4.28;2.33;;;23.70;99.90;;;;;;5080938;28;20089;-71
2022/07/13 02:46:32;;;;;;;3.85;2.13;;;23.60;99.90;;;;;;5080833;28;20033;-70
2022/07/13 02:48:58;;;;;;;5.07;2.30;;;23.50;99.90;;;;;;5081064;28;20078;-73
2022/07/13 02:51:26;;;;;;;5.18;2.10;;;23.50;99.90;;;;;;5064796;28;20036;-72
2022/07/13 02:53:51;;;;;;;4.35;2.00;;;23.60;99.90;;;;;;5080429;28;20055;-70
2022/07/13 02:56:17;;;;;;;3.25;1.80;;;23.50;99.90;;;;;;5063018;28;20060;-72
2022/07/13 02:58:43;;;;;;;2.35;1.95;;;23.50;99.90;;;;;;5080405;28;20028;-73
2022/07/13 03:01:10;;;;;;;2.95;1.80;;;23.50;99.90;;;;;;5080844;28;20312;-71
2022/07/13 03:03:35;;;;;;;2.35;2.10;;;23.50;99.90;;;;;;5079979;28;20036;-72
2022/07/13 03:06:02;;;;;;;4.40;2.13;;;23.60;99.90;;;;;;5081050;28;20036;-74
2022/07/13 03:08:28;;;;;;;4.35;1.70;;;23.60;99.90;;;;;;5081548;28;20028;-73
2022/07/13 03:10:54;;;;;;;2.97;1.92;;;23.60;99.90;;;;;;5080451;28;20035;-73
2022/07/13 03:13:20;;;;;;;2.63;1.85;;;23.60;99.90;;;;;;5080667;28;20028;-72
2022/07/13 03:15:46;;;;;;;4.45;1.83;;;23.80;99.90;;;;;;5080133;28;20029;-72
2022/07/13 03:18:12;;;;;;;2.83;1.75;;;23.90;99.90;;;;;;5080808;28;20032;-71
2022/07/13 03:20:39;;;;;;;2.95;1.90;;;23.80;99.90;;;;;;5081351;28;20027;-73
2022/07/13 03:23:05;;;;;;;2.38;1.52;;;23.70;99.90;;;;;;5081363;28;20046;-72
2022/07/13 03:25:31;;;;;;;3.47;1.77;;;23.60;99.90;;;;;;5082840;28;20033;-71
2022/07/13 03:27:57;;;;;;;2.95;1.48;;;23.60;99.90;;;;;;5081449;28;20031;-73
2022/07/13 03:30:23;;;;;;;3.50;1.73;;;23.70;99.90;;;;;;5081724;28;20451;-72
2022/07/13 03:32:49;;;;;;;2.10;1.50;;;23.70;99.90;;;;;;5081484;28;20036;-72
2022/07/13 03:35:16;;;;;;;4.63;1.60;;;23.70;99.90;;;;;;5079199;28;20060;-72
2022/07/13 03:37:45;;;;;;;3.00;1.73;;;23.80;99.90;;;;;;5079630;28;20052;-72
2022/07/13 03:40:12;;;;;;;2.58;1.80;;;23.80;99.90;;;;;;5080171;28;20028;-70
2022/07/13 03:42:38;;;;;;;2.03;1.50;;;23.90;99.90;;;;;;5063683;28;20036;-72
2022/07/13 03:45:05;;;;;;;2.42;1.50;;;23.80;99.90;;;;;;5080612;28;20084;-72
2022/07/13 03:47:32;;;;;;;2.42;1.77;;;23.80;99.90;;;;;;5080728;28;20043;-71
2022/07/13 03:49:57;;;;;;;3.28;1.40;;;23.80;99.90;;;;;;5079938;28;20025;-70
2022/07/13 03:52:23;;;;;;;2.97;1.73;;;23.70;99.90;;;;;;5079786;28;20033;-70
2022/07/13 03:54:49;;;;;;;3.20;1.45;;;23.70;99.90;;;;;;5080835;28;20052;-73
2022/07/13 03:57:15;;;;;;;2.20;1.55;;;23.70;99.90;;;;;;5079379;28;20064;-71
2022/07/13 03:59:41;;;;;;;2.63;1.48;;;23.70;99.90;;;;;;5081311;28;20040;-71
2022/07/13 04:02:07;;;;;;;1.90;1.60;;;23.70;99.90;;;;;;5080991;28;20055;-72
2022/07/13 04:04:34;;;;;;;2.03;1.58;;;23.60;99.90;;;;;;5080686;28;20388;-71
2022/07/13 04:07:00;;;;;;;2.65;1.45;;;23.60;99.90;;;;;;5080864;28;20036;-73
2022/07/13 04:09:29;;;;;;;1.63;1.52;;;23.60;99.90;;;;;;5083235;28;20032;-72
2022/07/13 04:11:54;;;;;;;4.55;1.40;;;23.60;99.90;;;;;;5083024;28;20309;-72
2022/07/13 04:14:21;;;;;;;3.72;1.40;;;23.50;99.90;;;;;;5082534;28;20033;-71
2022/07/13 04:16:47;;;;;;;1.63;1.30;;;23.50;99.90;;;;;;5083277;28;20056;-71
2022/07/13 04:19:14;;;;;;;2.30;1.42;;;23.50;99.90;;;;;;5083219;28;20040;-73
2022/07/13 04:21:40;;;;;;;4.70;1.42;;;23.60;99.90;;;;;;5083668;28;20033;-71
2022/07/13 04:24:06;;;;;;;2.75;1.40;;;23.70;99.90;;;;;;5081829;28;20109;-73
2022/07/13 04:26:31;;;;;;;3.45;1.67;;;23.80;99.90;;;;;;5081476;28;20029;-72
2022/07/13 04:28:57;;;;;;;2.33;1.35;;;24.00;99.90;;;;;;5082564;28;20035;-72
2022/07/13 04:31:26;;;;;;;2.13;1.50;;;24.00;99.90;;;;;;5080999;28;20068;-73
2022/07/13 04:33:52;;;;;;;4.82;1.60;;;24.10;99.90;;;;;;5081689;28;20033;-73
2022/07/13 04:36:20;;;;;;;1.73;1.40;;;24.10;99.90;;;;;;5065650;28;20315;-74
2022/07/13 04:38:46;;;;;;;3.47;1.45;;;23.90;99.90;;;;;;5082134;28;20124;-72
2022/07/13 04:41:12;;;;;;;2.65;1.40;;;23.80;99.90;;;;;;5081175;28;20033;-70
2022/07/13 04:43:38;;;;;;;2.53;1.52;;;24.00;99.90;;;;;;5082110;28;20020;-72
2022/07/13 04:46:10;;;;;;;3.47;1.60;;;24.00;99.90;;;;;;5081419;28;20379;-73
2022/07/13 04:48:36;;;;;;;2.05;1.30;;;23.90;99.90;;;;;;5081710;28;20033;-72
2022/07/13 04:51:02;;;;;;;1.80;1.25;;;23.80;99.90;;;;;;5082661;28;20054;-71
2022/07/13 04:53:28;;;;;;;3.53;1.40;;;23.90;99.90;;;;;;5065455;28;20404;-73
2022/07/13 04:55:55;;;;;;;1.55;1.25;;;23.90;99.90;;;;;;5082168;28;20044;-74
2022/07/13 04:58:21;;;;;;;2.25;1.50;;;23.90;99.90;;;;;;5049279;28;20292;-73
2022/07/13 05:00:47;;;;;;;2.78;1.42;;;24.00;99.90;;;;;;5082852;28;20094;-72
2022/07/13 05:03:13;;;;;;;2.08;1.38;;;24.10;99.90;;;;;;5081706;28;20025;-74
2022/07/13 05:05:39;;;;;;;2.70;1.33;;;24.20;99.90;;;;;;5081902;28;20028;-70
2022/07/13 05:08:05;;;;;;;3.95;1.48;;;24.20;99.90;;;;;;5082073;28;20033;-71
2022/07/13 05:10:32;;;;;;;4.18;1.50;;;24.30;99.90;;;;;;5079888;28;20028;-72
2022/07/13 05:12:57;;;;;;;2.33;1.30;;;24.30;99.90;;;;;;5081836;28;20418;-70
2022/07/13 05:15:24;;;;;;;2.53;1.50;;;24.30;99.90;;;;;;5080378;28;20032;-72
2022/07/13 05:17:51;;;;;;;4.35;1.60;;;24.40;99.90;;;;;;5079955;28;20032;-72
2022/07/13 05:20:18;;;;;;;2.03;1.52;;;24.50;99.90;;;;;;5081205;28;20391;-74
2022/07/13 05:22:50;;;;;;;4.75;1.75;;;24.50;99.90;;;;;;5081594;28;20039;-73
2022/07/13 05:25:20;;;;;;;2.72;1.70;;;24.60;99.90;;;;;;5081718;28;20043;-73
2022/07/13 05:27:46;;;;;;;5.95;1.50;;;24.80;99.90;;;;;;5082322;28;20024;-72
2022/07/13 05:30:12;;;;;;;2.95;1.50;;;24.90;99.90;;;;;;5084047;28;20330;-72
2022/07/13 05:32:40;;;;;;;2.80;1.70;;;24.60;99.90;;;;;;5082339;28;20032;-73
2022/07/13 05:35:06;;;;;;;2.75;1.73;;;24.50;99.90;;;;;;5064096;28;20399;-72
2022/07/13 05:37:34;;;;;;;2.85;1.48;;;24.60;99.90;;;;;;5080778;28;20128;-72
2022/07/13 05:40:00;;;;;;;4.40;1.60;;;24.60;99.90;;;;;;5080320;28;20376;-72
2022/07/13 05:42:26;;;;;;;2.60;1.50;;;24.60;99.90;;;;;;5064534;28;20372;-74
2022/07/13 05:44:53;;;;;;;4.95;1.90;;;24.40;99.90;;;;;;5065224;28;20461;-73
2022/07/13 05:47:18;;;;;;;2.83;1.40;;;24.40;99.90;;;;;;5082769;28;20030;-71
2022/07/13 05:49:45;;;;;;;3.30;1.40;;;24.50;99.90;;;;;;5065332;28;20423;-71
2022/07/13 05:52:12;;;;;;;6.90;1.90;;;24.60;99.90;;;;;;5081662;28;20325;-71
2022/07/13 05:54:38;;;;;;;7.88;1.80;;;24.60;99.90;;;;;;5081150;28;20117;-70
2022/07/13 05:57:04;;;;;;;3.13;1.75;;;24.70;99.90;;;;;;5080584;28;20079;-71
2022/07/13 05:59:30;;;;;;;8.48;1.92;;;24.70;99.90;;;;;;5081226;28;20052;-72
2022/07/13 06:01:55;;;;;;;4.72;1.65;;;24.30;99.90;;;;;;5080281;28;20043;-71
2022/07/13 06:04:21;;;;;;;4.57;1.83;;;24.30;99.90;;;;;;5080168;28;20033;-73
2022/07/13 06:06:47;;;;;;;3.40;1.70;;;24.50;99.90;;;;;;5079826;28;20127;-70
2022/07/13 06:09:13;;;;;;;3.08;1.60;;;24.70;99.90;;;;;;5080492;28;20063;-73
2022/07/13 06:11:39;;;;;;;8.48;2.03;;;24.80;99.90;;;;;;5080637;28;20028;-72
2022/07/13 06:14:06;;;;;;;6.75;1.83;;;24.70;99.90;;;;;;5079843;28;20340;-71
2022/07/13 06:16:33;;;;;;;3.22;2.17;;;24.80;99.90;;;;;;5062053;28;20032;-72
2022/07/13 06:18:58;;;;;;;4.95;2.42;;;24.90;99.90;;;;;;5079790;28;20342;-72
2022/07/13 06:21:24;;;;;;;4.50;2.22;;;24.80;99.90;;;;;;5079918;28;20111;-72
2022/07/13 06:23:50;;;;;;;4.97;1.90;;;24.80;99.90;;;;;;5079436;28;20113;-73
2022/07/13 06:26:15;;;;;;;4.78;2.10;;;25.00;99.90;;;;;;5079819;28;20088;-70
2022/07/13 06:28:41;;;;;;;5.78;2.30;;;24.90;99.90;;;;;;5079574;28;20123;-71
2022/07/13 06:31:07;;;;;;;4.63;2.70;;;25.00;99.90;;;;;;5080002;28;20412;-73
2022/07/13 06:33:35;;;;;;;5.82;2.40;;;25.00;99.90;;;;;;5080909;28;20032;-71
2022/07/13 06:36:01;;;;;;;6.45;2.38;;;25.00;99.90;;;;;;5079093;28;20351;-71
2022/07/13 06:38:26;;;;;;;6.32;2.58;;;25.10;99.90;;;;;;5081000;28;20025;-73
2022/07/13 06:40:53;;;;;;;9.40;3.13;;;25.20;99.90;;;;;;5079547;28;20033;-73
2022/07/13 06:43:18;;;;;;;4.20;2.60;;;25.00;99.90;;;;;;5080644;28;20392;-73
2022/07/13 06:45:44;;;;;;;4.53;2.67;;;25.00;99.90;;;;;;5080680;28;20038;-69
2022/07/13 06:48:10;;;;;;;8.30;3.40;;;25.20;99.90;;;;;;5080152;28;20044;-70
2022/07/13 06:50:36;;;;;;;4.68;2.97;;;25.40;99.90;;;;;;5083186;28;20103;-72
2022/07/13 06:53:02;;;;;;;10.23;3.17;;;25.20;99.90;;;;;;5082103;28;20024;-72
2022/07/13 06:55:28;;;;;;;5.50;3.08;;;25.00;99.90;;;;;;5082603;28;20374;-71
2022/07/13 06:57:55;;;;;;;5.65;3.20;;;24.90;99.90;;;;;;5084059;28;20033;-74
2022/07/13 07:00:21;;;;;;;7.78;3.03;;;25.20;99.90;;;;;;5081609;28;20043;-70
2022/07/13 07:02:47;;;;;;;7.55;3.20;;;25.10;99.90;;;;;;5081874;28;20024;-72
2022/07/13 07:05:13;;;;;;;4.25;2.85;;;25.30;99.90;;;;;;5085700;28;20032;-70
2022/07/13 07:07:40;;;;;;;7.45;3.55;;;25.50;99.90;;;;;;5081926;28;20036;-68
2022/07/13 07:10:08;;;;;;;8.18;3.50;;;25.60;99.90;;;;;;5081767;28;20027;-70
2022/07/13 07:12:34;;;;;;;7.22;3.10;;;25.80;99.90;;;;;;5077294;28;20362;-68
2022/07/13 07:15:01;;;;;;;6.15;3.63;;;25.70;99.90;;;;;;5078079;28;20123;-70
2022/07/13 07:17:27;;;;;;;9.15;3.65;;;25.90;99.90;;;;;;5077266;28;20033;-67
2022/07/13 07:20:00;;;;;;;6.40;3.83;;;26.10;99.90;;;;;;5076760;28;20032;-66
2022/07/13 07:22:26;;;;;;;5.03;3.38;;;26.40;99.90;;;;;;5077314;28;20409;-69
2022/07/13 07:24:52;;;;;;;10.45;4.15;;;26.40;99.90;;;;;;5077211;28;20090;-69
2022/07/13 07:27:19;;;;;;;3.45;3.10;;;26.20;99.90;;;;;;5079383;28;20047;-72
2022/07/13 07:29:46;;;;;;;5.72;3.28;;;26.10;99.90;;;;;;5079078;28;20097;-67
2022/07/13 07:32:12;;;;;;;5.15;3.30;;;26.40;99.90;;;;;;5078259;28;20036;-71
2022/07/13 07:34:38;;;;;;;6.90;3.72;;;26.60;99.90;;;;;;5077563;28;20095;-67
2022/07/13 07:37:03;;;;;;;7.75;3.65;;;26.70;99.90;;;;;;5079904;28;20037;-71
2022/07/13 07:39:29;;;;;;;6.38;3.50;;;26.50;99.90;;;;;;5081063;28;20047;-71
2022/07/13 07:41:55;;;;;;;8.30;3.42;;;26.50;99.90;;;;;;5081804;28;20068;-71
2022/07/13 07:44:22;;;;;;;3.67;2.97;;;26.40;99.90;;;;;;5083761;28;20036;-73
2022/07/13 07:46:48;;;;;;;4.90;3.20;;;26.50;99.90;;;;;;5084845;28;20082;-71
2022/07/13 07:49:15;;;;;;;5.47;3.35;;;26.40;99.90;;;;;;5083183;28;20071;-69
2022/07/13 07:51:41;;;;;;;7.13;3.08;;;26.60;99.90;;;;;;5085841;28;20052;-71
2022/07/13 07:54:06;;;;;;;6.45;3.10;;;26.80;99.90;;;;;;5082936;28;20040;-72
2022/07/13 07:56:32;;;;;;;7.18;3.47;;;27.10;99.90;;;;;;5084253;28;20421;-71
2022/07/13 07:58:58;;;;;;;6.20;3.40;;;27.40;99.90;;;;;;5083712;28;20040;-71
2022/07/13 08:01:24;;;;;;;4.65;3.00;;;27.40;99.90;;;;;;5081430;28;20047;-72
2022/07/13 08:03:50;;;;;;;5.72;3.17;;;27.70;99.90;;;;;;5081481;28;20028;-69
2022/07/13 08:06:16;;;;;;;4.85;2.70;;;27.50;99.90;;;;;;5082724;28;20040;-70
2022/07/13 08:08:42;;;;;;;4.75;2.83;;;27.00;99.90;;;;;;5082657;28;20101;-70
2022/07/13 08:11:09;;;;;;;4.05;2.75;;;27.10;99.90;;;;;;5081979;28;20025;-71
2022/07/13 08:13:36;;;;;;;5.22;2.92;;;27.30;99.90;;;;;;5082960;28;20032;-67
2022/07/13 08:16:03;;;;;;;7.15;3.33;;;27.30;99.90;;;;;;5085308;28;20064;-72
2022/07/13 08:18:29;;;;;;;4.47;2.30;;;27.30;99.90;;;;;;5082519;28;20071;-72
2022/07/13 08:20:55;;;;;;;7.55;2.67;;;27.20;99.90;;;;;;5082076;28;20356;-72
2022/07/13 08:26:05;;;;;;;3.60;2.10;;;26.90;99.90;;;;;;5085270;28;20411;-69
2022/07/13 08:28:31;;;;;;;2.40;1.92;;;26.90;99.90;;;;;;5086885;28;20052;-71
2022/07/13 08:30:57;;;;;;;5.80;1.60;;;27.00;99.90;;;;;;5083845;28;20090;-71
2022/07/13 08:38:53;;;;;;;1.55;1.45;;;27.90;99.90;;;;;;5083340;28;20078;-70
2022/07/13 08:41:19;;;;;;;4.38;1.60;;;27.90;99.90;;;;;;5085269;28;20037;-72
2022/07/13 08:43:45;;;;;;;4.07;1.70;;;27.80;99.90;;;;;;5085271;28;20043;-72
2022/07/13 08:46:11;;;;;;;7.38;1.63;;;28.00;99.90;;;;;;5082259;28;20392;-73
2022/07/13 08:48:38;;;;;;;6.68;1.63;;;28.10;99.90;;;;;;5080599;28;20059;-69
2022/07/13 08:51:06;;;;;;;3.03;1.60;;;27.90;99.90;;;;;;5082819;28;20024;-72
2022/07/13 08:53:31;;;;;;;1.60;1.33;;;27.70;99.90;;;;;;5081871;28;20364;-72
2022/07/13 08:55:57;;;;;;;2.70;1.50;;;27.60;99.90;;;;;;5084098;28;20048;-69
2022/07/13 08:58:24;;;;;;;4.85;1.58;;;27.70;99.90;;;;;;5083272;28;20124;-71
2022/07/13 09:00:50;;;;;;;3.08;1.25;;;28.10;99.90;;;;;;5083194;28;20112;-70
2022/07/13 09:03:16;;;;;;;6.28;1.40;;;28.30;99.90;;;;;;5081874;28;20464;-72
2022/07/13 09:05:42;;;;;;;1.35;1.10;;;28.40;99.90;;;;;;5080098;28;20032;-71
2022/07/13 09:08:11;;;;;;;1.58;1.00;;;28.60;99.90;;;;;;5081134;28;20041;-74
2022/07/13 09:10:58;;;;;;;2.08;1.00;;;28.70;99.90;;;;;;5080320;28;20069;-68
2022/07/13 09:13:41;;;;;;;2.17;1.00;;;28.90;99.90;;;;;;5082090;28;20055;-71
2022/07/13 09:16:19;;;;;;;;;;;28.70;99.90;;;;;;5081153;28;20029;-71
2022/07/13 09:18:50;;;;;;;2.83;1.10;;;28.70;99.90;;;;;;5079754;28;20006;-73
2022/07/13 09:21:18;;;;;;;1.90;1.17;;;28.70;99.90;;;;;;5079102;28;20124;-73
2022/07/13 09:23:56;;;;;;;2.22;1.30;;;28.90;99.90;;;;;;5079708;28;20032;-69
2022/07/13 09:26:22;;;;;;;2.50;1.20;;;29.10;99.90;;;;;;5080839;28;20396;-70
2022/07/13 09:28:50;;;;;;;2.08;1.25;;;28.70;99.90;;;;;;5079707;28;20167;-68
2022/07/13 09:31:17;;;;;;;3.72;1.17;;;28.90;99.90;;;;;;5080019;28;20086;-71
2022/07/13 09:33:44;;;;;;;2.40;1.40;;;29.00;99.90;;;;;;5080048;28;20033;-70
2022/07/13 09:36:15;;;;;;;2.60;1.20;;;29.40;99.90;;;;;;5079666;28;20389;-70
2022/07/13 09:38:47;;;;;;;2.45;1.10;;;29.60;99.90;;;;;;5079351;28;20376;-72
2022/07/13 09:41:18;;;;;;;2.33;1.27;;;29.80;99.90;;;;;;5080597;28;20032;-71
2022/07/13 09:47:01;;;;;;;3.35;1.10;;;29.00;99.90;;;;;;5078939;28;20032;-71
2022/07/13 09:49:44;;;;;;;1.70;1.30;;;29.40;99.90;;;;;;5079496;28;20043;-68
2022/07/13 09:52:16;;;;;;;3.08;1.30;;;29.60;99.90;;;;;;5079197;28;20090;-66
2022/07/13 09:54:44;;;;;;;3.22;1.10;;;29.60;99.90;;;;;;5079067;28;20036;-69
2022/07/13 09:57:13;;;;;;;4.63;1.20;;;29.90;99.90;;;;;;5079272;28;20345;-72
2022/07/13 09:59:41;;;;;;;2.90;1.30;;;30.10;99.90;;;;;;5079019;28;20037;-70
2022/07/13 10:02:08;;;;;;;2.45;1.20;;;29.50;99.90;;;;;;5079278;28;20062;-68
2022/07/13 10:04:37;;;;;;;1.60;1.30;;;29.40;99.90;;;;;;5076954;28;20043;-69
2022/07/13 10:07:04;;;;;;;2.03;1.15;;;29.60;99.90;;;;;;5079722;28;20020;-67
2022/07/13 10:09:31;;;;;;;2.53;1.35;;;29.50;99.90;;;;;;5080570;28;20040;-68
2022/07/13 10:11:58;;;;;;;3.22;1.13;;;29.40;99.90;;;;;;5078790;28;20032;-69
2022/07/13 10:14:27;;;;;;;1.60;1.05;;;29.40;99.90;;;;;;5080497;28;20098;-71
2022/07/13 10:17:12;;;;;;;1.75;1.30;;;29.10;99.90;;;;;;5078528;28;20131;-68
2022/07/13 10:20:08;;;;;;;4.53;1.35;;;29.30;99.90;;;;;;5078483;28;20039;-69
2022/07/13 10:22:50;;;;;;;1.63;1.30;;;28.90;99.90;;;;;;5079009;28;20064;-69
2022/07/13 10:25:16;;;;;;;;;;;28.90;99.90;;;;;;5079488;28;20107;-66
2022/07/13 10:27:43;;;;;;;1.30;1.20;;;29.00;99.90;;;;;;5079409;28;19922;-71
2022/07/13 10:30:18;;;;;;;1.83;1.20;;;29.30;99.90;;;;;;5077485;28;20037;-72
2022/07/13 10:32:46;;;;;;;3.55;1.48;;;29.90;99.90;;;;;;5078519;28;20032;-70
2022/07/13 10:35:16;;;;;;;2.60;1.20;;;30.00;99.90;;;;;;5078861;28;20055;-71
2022/07/13 10:38:00;;;;;;;1.38;1.17;;;29.60;99.90;;;;;;5078747;28;20024;-66
2022/07/13 10:40:31;;;;;;;2.03;1.60;;;29.70;99.90;;;;;;5078678;28;20395;-67
2022/07/13 10:43:05;;;;;;;2.35;1.35;;;29.40;99.90;;;;;;5077566;28;20407;-71
2022/07/13 10:45:38;;;;;;;2.03;1.27;;;29.60;99.90;;;;;;5078990;28;20020;-72
2022/07/13 10:48:22;;;;;;;2.60;1.60;;;30.20;99.90;;;;;;5079869;28;20048;-70
2022/07/13 10:50:52;;;;;;;2.35;1.83;;;31.20;99.90;;;;;;5079692;28;20028;-72
2022/07/13 10:53:19;;;;;;;4.95;2.28;;;31.70;99.90;;;;;;5078463;28;20033;-71
2022/07/13 10:55:50;;;;;;;2.60;1.70;;;32.10;99.70;;;;;;5078013;28;20428;-71
2022/07/13 10:58:31;;;;;;;1.75;1.65;;;32.40;99.50;;;;;;5078247;28;20036;-70
2022/07/13 11:00:58;;;;;;;3.30;1.80;;;32.60;98.80;;;;;;5078733;28;20285;-67
2022/07/13 11:03:30;;;;;;;3.78;1.75;;;32.20;98.60;;;;;;5077412;28;20036;-71
2022/07/13 11:06:11;;;;;;;6.05;2.22;;;31.60;99.50;;;;;;5079287;28;20361;-72
2022/07/13 11:08:37;;;;;;;2.38;1.70;;;32.00;99.60;;;;;;5076762;28;20043;-67
2022/07/13 11:11:13;;;;;;;2.33;1.50;;;32.70;98.80;;;;;;5077577;28;20288;-69
2022/07/13 11:13:39;;;;;;;5.95;1.90;;;33.40;97.20;;;;;;5077426;28;20028;-71
2022/07/13 11:16:07;;;;;;;1.63;1.52;;;33.60;96.90;;;;;;5076647;28;20048;-72
2022/07/13 11:18:38;;;;;;;4.65;1.90;;;33.80;95.30;;;;;;5077967;28;20064;-71
2022/07/13 11:21:16;;;;;;;4.70;1.77;;;33.70;94.60;;;;;;5078147;28;20044;-70
2022/07/13 11:26:53;;;;;;;4.40;1.90;;;32.80;94.80;;;;;;5078109;28;20107;-69
2022/07/13 11:29:51;;;;;;;2.53;1.95;;;32.90;94.70;;;;;;5077705;28;20035;-72
2022/07/13 11:32:21;;;;;;;2.13;1.80;;;32.80;94.70;;;;;;5077750;28;20048;-68
2022/07/13 11:34:47;;;;;;;4.05;1.92;;;33.10;94.60;;;;;;5076944;28;20404;-73
2022/07/13 11:37:13;;;;;;;2.80;2.05;;;33.20;94.30;;;;;;5076567;28;20123;-72
2022/07/13 11:39:40;;;;;;;1.90;1.70;;;33.60;94.30;;;;;;5077469;28;20040;-71
2022/07/13 11:42:07;;;;;;;6.35;2.00;;;34.30;92.60;;;;;;5077668;28;20037;-71
2022/07/13 11:44:34;;;;;;;4.38;2.08;;;34.50;92.10;;;;;;5077690;28;20078;-71
2022/07/13 11:47:09;;;;;;;4.05;2.08;;;34.90;91.60;;;;;;5077963;28;20048;-72
2022/07/13 11:49:46;;;;;;;3.28;1.50;;;33.60;92.30;;;;;;5077964;28;20069;-65
2022/07/13 11:52:20;;;;;;;2.20;1.60;;;34.30;91.30;;;;;;5077750;28;20277;-67
2022/07/13 11:55:04;;;;;;;3.03;1.65;;;34.40;90.60;;;;;;5077014;28;20101;-68
2022/07/13 11:57:31;;;;;;;2.38;1.50;;;34.40;90.40;;;;;;5077441;28;20040;-68
2022/07/13 12:00:01;;;;;;;1.70;1.52;;;34.40;89.80;;;;;;5077689;28;20043;-67
2022/07/13 12:02:37;;;;;;;3.60;1.40;;;34.90;89.20;;;;;;5076613;28;20040;-67
2022/07/13 12:05:03;;;;;;;5.00;1.58;;;35.60;88.30;;;;;;5077195;28;20411;-67
2022/07/13 12:07:30;;;;;;;2.38;1.77;;;36.00;89.90;;;;;;5077405;28;20028;-66
2022/07/13 12:10:01;;;;;;;4.35;1.70;;;36.20;86.90;;;;;;5078173;28;20048;-68
2022/07/13 12:12:30;;;;;;;2.00;1.70;;;36.30;87.10;;;;;;5077922;28;20112;-68
2022/07/13 12:14:57;;;;;;;2.20;1.48;;;36.00;87.20;;;;;;5077051;28;20115;-69
2022/07/13 12:17:25;;;;;;;3.30;1.63;;;35.60;89.20;;;;;;5077600;28;20044;-64
2022/07/13 12:19:51;;;;;;;4.00;1.70;;;35.40;88.60;;;;;;5077165;28;20060;-70
2022/07/13 12:22:21;;;;;;;4.82;1.58;;;35.10;89.00;;;;;;5077138;28;20036;-66
2022/07/13 12:24:47;;;;;;;6.28;1.60;;;34.60;90.30;;;;;;5076674;28;20343;-67
2022/07/13 12:27:22;;;;;;;4.40;1.80;;;34.20;90.60;;;;;;5077904;28;20362;-65
2022/07/13 12:29:48;;;;;;;5.50;1.50;;;33.90;90.10;;;;;;5080290;28;20060;-69
2022/07/13 12:32:14;;;;;;;4.97;1.60;;;34.00;91.10;;;;;;5080817;28;20035;-66
2022/07/13 12:34:52;;;;;;;5.90;1.40;;;34.10;90.20;;;;;;5080982;28;20040;-65
2022/07/13 12:37:37;;;;;;;4.28;1.38;;;34.20;89.80;;;;;;5079614;28;20371;-69
2022/07/13 12:40:04;;;;;;;3.85;1.60;;;34.30;89.80;;;;;;5080258;28;20051;-70
2022/07/13 12:42:32;;;;;;;3.58;1.52;;;34.20;89.60;;;;;;5080359;28;20041;-68
2022/07/13 12:44:58;;;;;;;2.53;1.40;;;34.20;88.60;;;;;;5079709;28;20281;-70
2022/07/13 12:47:24;;;;;;;2.15;1.50;;;33.80;89.40;;;;;;5080888;28;20020;-70
2022/07/13 12:49:50;;;;;;;6.18;1.67;;;33.80;90.60;;;;;;5080423;28;20033;-66
2022/07/13 12:52:19;;;;;;;2.95;1.20;;;33.80;90.60;;;;;;5080542;28;20400;-66
2022/07/13 12:54:49;;;;;;;4.35;1.33;;;33.70;90.60;;;;;;5080065;28;20296;-67
2022/07/13 12:57:20;;;;;;;2.33;1.30;;;33.90;89.80;;;;;;5080513;28;20113;-68
2022/07/13 13:00:11;;;;;;;3.20;1.23;;;34.10;89.50;;;;;;5064080;28;20412;-68
2022/07/13 13:02:40;;;;;;;2.72;1.33;;;34.00;89.50;;;;;;5079652;28;20055;-70
2022/07/13 13:05:09;;;;;;;4.38;1.50;;;33.40;90.30;;;;;;5079516;28;20032;-69